M/V C0sta Favolosa — ICPK — position and weather

sailwx.info

Track history (hours):
 
Tides and Currents Weather Stations Pressure Air Temp Water Temp Dewpoint Dewpoint Depression Visibility Wind Speed Wind Dir Waves Ship Positions

M/V C0sta Favolosa

Last reported at 2019-Mar-21 07:07 UTC. Time now 2019-Mar-22 12:40 UTC.
Position S 24°40' W 046°31'.

Length 289 m; draft 8.3 m.

Type: Passenger vessel. MMSI: 247311100.

Date/timePositionNaut miles runAvg speedWind from/ knotsBaromVisibWave heightAir tempDewpointWater temp
2019-Mar-21 07:07S 24°40' W 046°31'210.5
2019-Mar-21 06:58S 24°38' W 046°30'510.6
2019-Mar-21 06:29S 24°33' W 046°28'610.4
2019-Mar-21 05:54S 24°28' W 046°26'510.3
2019-Mar-21 05:28S 24°24' W 046°24'510.3
2019-Mar-21 05:00S 24°19' W 046°22'510.0
2019-Mar-21 04:30S 24°14' W 046°22'510.4
2019-Mar-21 04:00S 24°09' W 046°22'510.2
2019-Mar-21 03:30S 24°04' W 046°22'5 9.4
2019-Mar-21 03:00S 23°60' W 046°20'3 0.2
2019-Mar-20 10:19S 23°58' W 046°18'1 2.7
2019-Mar-20 10:00S 23°58' W 046°17'4 7.0
2019-Mar-20 09:30S 24°01' W 046°20'611.2
2019-Mar-20 09:00S 24°06' W 046°23'611.4
2019-Mar-20 08:30S 24°12' W 046°22'611.7
2019-Mar-20 08:00S 24°18' W 046°22'611.6
2019-Mar-20 07:30S 24°23' W 046°19'612.0
2019-Mar-20 06:59S 24°27' W 046°15'14115.2
2019-Mar-19 21:43S 23°12' W 044°05'315.2
2019-Mar-19 21:30S 23°08' W 044°05'2 0.2
2019-Mar-19 09:27S 23°09' W 044°03'2111.5
2019-Mar-19 07:38S 23°30' W 044°06'211.1
2019-Mar-19 07:29S 23°32' W 044°07'  
2019-Mar-17 01:02S 24°41' W 046°40'318.0
2019-Mar-17 00:51S 24°39' W 046°38'617.8
2019-Mar-17 00:30S 24°33' W 046°34'917.7
2019-Mar-17 00:00S 24°25' W 046°30'917.5
2019-Mar-16 23:30S 24°17' W 046°26'917.3
2019-Mar-16 23:00S 24°09' W 046°24'815.8
2019-Mar-16 22:30S 24°01' W 046°21'4 0.4
2019-Mar-16 09:57S 23°58' W 046°18'2 4.4
2019-Mar-16 09:30S 23°60' W 046°19'4 9.0
2019-Mar-16 09:00S 24°03' W 046°22'612.9
2019-Mar-16 08:30S 24°09' W 046°23'918.0
2019-Mar-16 08:00S 24°18' W 046°22'918.4
2019-Mar-16 07:30S 24°26' W 046°16'148 8.0
2019-Mar-15 13:03S 23°28' W 043°47'318.6
2019-Mar-15 12:53S 23°27' W 043°43'718.5
2019-Mar-15 12:29S 23°25' W 043°36'918.8
2019-Mar-15 12:00S 23°23' W 043°26'918.9
2019-Mar-15 11:30S 23°21' W 043°16'1018.9
2019-Mar-15 11:00S 23°19' W 043°06'918.9
2019-Mar-15 10:30S 23°17' W 042°56'1219.1
2019-Mar-15 09:52S 23°13' W 042°43'719.5
2019-Mar-15 09:30S 23°11' W 042°36'1219.7
2019-Mar-15 08:53S 23°08' W 042°23'  
Track history (hours):
 
Tides and Currents Weather Stations Pressure Air Temp Water Temp Dewpoint Dewpoint Depression Visibility Wind Speed Wind Dir Waves Ship Positions

M/V C0sta Favolosa

Last reported at 2019-Mar-21 07:07 UTC. Time now 2019-Mar-22 12:40 UTC.
Position S 24°40' W 046°31'.

Length 289 m; draft 8.3 m.

Type: Passenger vessel. MMSI: 247311100.

Date/timePositionNaut miles runAvg speedWind from/ knotsBaromVisibWave heightAir tempDewpointWater temp
2019-Mar-21 07:07S 24°40' W 046°31'210.5
2019-Mar-21 06:58S 24°38' W 046°30'510.6
2019-Mar-21 06:29S 24°33' W 046°28'610.4
2019-Mar-21 05:54S 24°28' W 046°26'510.3
2019-Mar-21 05:28S 24°24' W 046°24'510.3
2019-Mar-21 05:00S 24°19' W 046°22'510.0
2019-Mar-21 04:30S 24°14' W 046°22'510.4
2019-Mar-21 04:00S 24°09' W 046°22'510.2
2019-Mar-21 03:30S 24°04' W 046°22'5 9.4
2019-Mar-21 03:00S 23°60' W 046°20'3 0.2
2019-Mar-20 10:19S 23°58' W 046°18'1 2.7
2019-Mar-20 10:00S 23°58' W 046°17'4 7.0
2019-Mar-20 09:30S 24°01' W 046°20'611.2
2019-Mar-20 09:00S 24°06' W 046°23'611.4
2019-Mar-20 08:30S 24°12' W 046°22'611.7
2019-Mar-20 08:00S 24°18' W 046°22'611.6
2019-Mar-20 07:30S 24°23' W 046°19'612.0
2019-Mar-20 06:59S 24°27' W 046°15'14115.2
2019-Mar-19 21:43S 23°12' W 044°05'315.2
2019-Mar-19 21:30S 23°08' W 044°05'2 0.2
2019-Mar-19 09:27S 23°09' W 044°03'2111.5
2019-Mar-19 07:38S 23°30' W 044°06'211.1
2019-Mar-19 07:29S 23°32' W 044°07'  
2019-Mar-17 01:02S 24°41' W 046°40'318.0
2019-Mar-17 00:51S 24°39' W 046°38'617.8
2019-Mar-17 00:30S 24°33' W 046°34'917.7
2019-Mar-17 00:00S 24°25' W 046°30'917.5
2019-Mar-16 23:30S 24°17' W 046°26'917.3
2019-Mar-16 23:00S 24°09' W 046°24'815.8
2019-Mar-16 22:30S 24°01' W 046°21'4 0.4
2019-Mar-16 09:57S 23°58' W 046°18'2 4.4
2019-Mar-16 09:30S 23°60' W 046°19'4 9.0
2019-Mar-16 09:00S 24°03' W 046°22'612.9
2019-Mar-16 08:30S 24°09' W 046°23'918.0
2019-Mar-16 08:00S 24°18' W 046°22'918.4
2019-Mar-16 07:30S 24°26' W 046°16'148 8.0
2019-Mar-15 13:03S 23°28' W 043°47'318.6
2019-Mar-15 12:53S 23°27' W 043°43'718.5
2019-Mar-15 12:29S 23°25' W 043°36'918.8
2019-Mar-15 12:00S 23°23' W 043°26'918.9
2019-Mar-15 11:30S 23°21' W 043°16'1018.9
2019-Mar-15 11:00S 23°19' W 043°06'918.9
2019-Mar-15 10:30S 23°17' W 042°56'1219.1
2019-Mar-15 09:52S 23°13' W 042°43'719.5
2019-Mar-15 09:30S 23°11' W 042°36'1219.7
2019-Mar-15 08:53S 23°08' W 042°23'  

Dump ship's entire track history